Hillsboro, Texas
Current Conditions -  °F | °C
As of 12:15 AM on Thursday 29 Jan 2015 (Local Time) from KINJ Reporting Station
Clear Clear  
Wind Chill: 56°   Ceiling: Unl
Heat Index: 56°   Visibility: 10mi
Dew Point: 42°   Wind: 8mph
Humidity: 59%   Direction: 170°S
Pressure: 30.09"   Gusts: NA
Location:  32.01°N, 97.13°W
Report Text: KINJ 290615Z AUTO 17007KT 10SM CLR 14/06 A3009 RMK AO2 T01360056
Loading
Personal Weather Stations






























Interactive Weather Map New forecast layout! Learn more

10-Day Weather Forecast

Advertisements
Track Severe Weather on mobile